sensor_id;sensor_type;location;lat;lon;timestamp;P1;durP1;ratioP1;P2;durP2;ratioP2
47545;SDS011;50104;52.002;4.688;2022-08-19T00:02:42;11.45;;;10.07;;
47545;SDS011;50104;52.002;4.688;2022-08-19T00:07:43;12.05;;;10.82;;
47545;SDS011;50104;52.002;4.688;2022-08-19T00:12:44;12.60;;;10.63;;
47545;SDS011;50104;52.002;4.688;2022-08-19T00:17:46;16.15;;;11.18;;
47545;SDS011;50104;52.002;4.688;2022-08-19T00:22:47;16.38;;;11.75;;
47545;SDS011;50104;52.002;4.688;2022-08-19T00:27:48;15.70;;;11.57;;
47545;SDS011;50104;52.002;4.688;2022-08-19T00:32:49;13.73;;;11.55;;
47545;SDS011;50104;52.002;4.688;2022-08-19T00:37:50;15.13;;;11.88;;
47545;SDS011;50104;52.002;4.688;2022-08-19T00:42:51;13.98;;;10.65;;
47545;SDS011;50104;52.002;4.688;2022-08-19T00:47:55;11.90;;;10.60;;
47545;SDS011;50104;52.002;4.688;2022-08-19T00:52:56;14.15;;;11.85;;
47545;SDS011;50104;52.002;4.688;2022-08-19T00:57:59;13.52;;;12.13;;
47545;SDS011;50104;52.002;4.688;2022-08-19T01:03:05;13.90;;;11.40;;
47545;SDS011;50104;52.002;4.688;2022-08-19T01:08:10;14.07;;;11.57;;
47545;SDS011;50104;52.002;4.688;2022-08-19T01:13:14;13.38;;;11.88;;
47545;SDS011;50104;52.002;4.688;2022-08-19T01:18:18;12.30;;;10.43;;
47545;SDS011;50104;52.002;4.688;2022-08-19T01:23:20;13.70;;;10.88;;
47545;SDS011;50104;52.002;4.688;2022-08-19T01:28:43;15.07;;;11.02;;
47545;SDS011;50104;52.002;4.688;2022-08-19T01:33:45;12.23;;;10.40;;
47545;SDS011;50104;52.002;4.688;2022-08-19T01:38:46;12.73;;;10.70;;
47545;SDS011;50104;52.002;4.688;2022-08-19T01:43:48;13.05;;;11.30;;
47545;SDS011;50104;52.002;4.688;2022-08-19T01:48:51;12.85;;;11.20;;
47545;SDS011;50104;52.002;4.688;2022-08-19T01:53:52;14.45;;;10.80;;
47545;SDS011;50104;52.002;4.688;2022-08-19T01:58:58;12.90;;;10.95;;
47545;SDS011;50104;52.002;4.688;2022-08-19T02:04:02;12.75;;;11.30;;
47545;SDS011;50104;52.002;4.688;2022-08-19T02:09:04;13.68;;;10.80;;
47545;SDS011;50104;52.002;4.688;2022-08-19T02:14:07;11.40;;;10.07;;
47545;SDS011;50104;52.002;4.688;2022-08-19T02:19:08;12.75;;;10.88;;
47545;SDS011;50104;52.002;4.688;2022-08-19T02:24:10;14.27;;;10.43;;
47545;SDS011;50104;52.002;4.688;2022-08-19T02:29:12;11.88;;;9.30;;
47545;SDS011;50104;52.002;4.688;2022-08-19T02:34:13;12.55;;;10.63;;
47545;SDS011;50104;52.002;4.688;2022-08-19T02:39:14;18.02;;;12.93;;
47545;SDS011;50104;52.002;4.688;2022-08-19T02:44:15;20.33;;;15.38;;
47545;SDS011;50104;52.002;4.688;2022-08-19T02:49:15;23.33;;;17.25;;
47545;SDS011;50104;52.002;4.688;2022-08-19T02:54:16;22.17;;;17.70;;
47545;SDS011;50104;52.002;4.688;2022-08-19T02:59:17;25.33;;;18.20;;
47545;SDS011;50104;52.002;4.688;2022-08-19T03:04:18;23.58;;;17.63;;
47545;SDS011;50104;52.002;4.688;2022-08-19T03:09:19;23.92;;;17.55;;
47545;SDS011;50104;52.002;4.688;2022-08-19T03:14:20;29.27;;;19.48;;
47545;SDS011;50104;52.002;4.688;2022-08-19T03:19:21;32.38;;;22.08;;
47545;SDS011;50104;52.002;4.688;2022-08-19T03:24:22;30.77;;;21.42;;
47545;SDS011;50104;52.002;4.688;2022-08-19T03:29:27;27.88;;;21.40;;
47545;SDS011;50104;52.002;4.688;2022-08-19T03:34:32;29.85;;;20.58;;
47545;SDS011;50104;52.002;4.688;2022-08-19T03:39:35;33.63;;;22.85;;
47545;SDS011;50104;52.002;4.688;2022-08-19T03:44:38;32.05;;;22.92;;
47545;SDS011;50104;52.002;4.688;2022-08-19T03:49:39;35.20;;;24.73;;
47545;SDS011;50104;52.002;4.688;2022-08-19T03:54:40;35.70;;;25.33;;
47545;SDS011;50104;52.002;4.688;2022-08-19T03:59:41;32.60;;;24.45;;
47545;SDS011;50104;52.002;4.688;2022-08-19T04:04:43;39.45;;;25.20;;
47545;SDS011;50104;52.002;4.688;2022-08-19T04:09:44;37.45;;;25.52;;
47545;SDS011;50104;52.002;4.688;2022-08-19T04:14:45;45.85;;;29.52;;
47545;SDS011;50104;52.002;4.688;2022-08-19T04:19:46;50.22;;;29.92;;
47545;SDS011;50104;52.002;4.688;2022-08-19T04:24:47;53.58;;;29.67;;
47545;SDS011;50104;52.002;4.688;2022-08-19T04:29:48;58.97;;;33.45;;
47545;SDS011;50104;52.002;4.688;2022-08-19T04:34:49;55.78;;;34.53;;
47545;SDS011;50104;52.002;4.688;2022-08-19T04:39:50;73.18;;;38.30;;
47545;SDS011;50104;52.002;4.688;2022-08-19T04:45:10;65.85;;;38.58;;
47545;SDS011;50104;52.002;4.688;2022-08-19T04:50:14;80.60;;;39.88;;
47545;SDS011;50104;52.002;4.688;2022-08-19T04:55:15;78.55;;;41.40;;
47545;SDS011;50104;52.002;4.688;2022-08-19T05:00:18;87.28;;;43.55;;
47545;SDS011;50104;52.002;4.688;2022-08-19T05:05:19;81.00;;;40.85;;
47545;SDS011;50104;52.002;4.688;2022-08-19T05:10:19;81.53;;;41.85;;
47545;SDS011;50104;52.002;4.688;2022-08-19T05:15:20;84.60;;;42.17;;
47545;SDS011;50104;52.002;4.688;2022-08-19T05:20:21;82.43;;;41.97;;
47545;SDS011;50104;52.002;4.688;2022-08-19T05:25:40;82.85;;;43.00;;
47545;SDS011;50104;52.002;4.688;2022-08-19T05:30:43;86.10;;;41.28;;
47545;SDS011;50104;52.002;4.688;2022-08-19T05:35:45;83.72;;;42.38;;
47545;SDS011;50104;52.002;4.688;2022-08-19T05:40:46;77.88;;;39.72;;
47545;SDS011;50104;52.002;4.688;2022-08-19T05:45:49;73.85;;;39.13;;
47545;SDS011;50104;52.002;4.688;2022-08-19T05:50:50;74.50;;;40.40;;
47545;SDS011;50104;52.002;4.688;2022-08-19T05:55:52;73.35;;;38.95;;
47545;SDS011;50104;52.002;4.688;2022-08-19T06:06:31;72.28;;;40.25;;
47545;SDS011;50104;52.002;4.688;2022-08-19T06:11:35;74.53;;;39.33;;
47545;SDS011;50104;52.002;4.688;2022-08-19T06:16:44;64.88;;;38.65;;
47545;SDS011;50104;52.002;4.688;2022-08-19T06:21:46;69.65;;;39.30;;
47545;SDS011;50104;52.002;4.688;2022-08-19T06:26:51;70.20;;;38.83;;
47545;SDS011;50104;52.002;4.688;2022-08-19T06:31:54;70.78;;;38.78;;
47545;SDS011;50104;52.002;4.688;2022-08-19T06:36:58;62.33;;;36.78;;
47545;SDS011;50104;52.002;4.688;2022-08-19T06:42:04;71.13;;;37.83;;
47545;SDS011;50104;52.002;4.688;2022-08-19T06:47:09;61.75;;;36.85;;
47545;SDS011;50104;52.002;4.688;2022-08-19T06:52:13;61.78;;;37.22;;
47545;SDS011;50104;52.002;4.688;2022-08-19T06:57:14;62.72;;;37.75;;
47545;SDS011;50104;52.002;4.688;2022-08-19T07:02:16;54.15;;;35.42;;
47545;SDS011;50104;52.002;4.688;2022-08-19T07:07:17;54.40;;;33.58;;
47545;SDS011;50104;52.002;4.688;2022-08-19T07:12:20;47.65;;;31.73;;
47545;SDS011;50104;52.002;4.688;2022-08-19T07:17:21;53.15;;;31.02;;
47545;SDS011;50104;52.002;4.688;2022-08-19T07:22:22;42.70;;;30.30;;
47545;SDS011;50104;52.002;4.688;2022-08-19T07:27:23;40.53;;;29.88;;
47545;SDS011;50104;52.002;4.688;2022-08-19T07:32:24;39.35;;;28.77;;
47545;SDS011;50104;52.002;4.688;2022-08-19T07:37:27;40.80;;;29.83;;
47545;SDS011;50104;52.002;4.688;2022-08-19T07:42:28;41.40;;;30.75;;
47545;SDS011;50104;52.002;4.688;2022-08-19T07:47:29;43.13;;;30.73;;
47545;SDS011;50104;52.002;4.688;2022-08-19T07:52:30;36.45;;;28.52;;
47545;SDS011;50104;52.002;4.688;2022-08-19T07:57:31;37.58;;;25.92;;
47545;SDS011;50104;52.002;4.688;2022-08-19T08:02:32;33.40;;;23.85;;
47545;SDS011;50104;52.002;4.688;2022-08-19T08:07:33;34.53;;;26.90;;
47545;SDS011;50104;52.002;4.688;2022-08-19T08:12:53;37.13;;;26.77;;
47545;SDS011;50104;52.002;4.688;2022-08-19T08:17:55;34.60;;;26.67;;
47545;SDS011;50104;52.002;4.688;2022-08-19T08:23:00;37.05;;;27.90;;
47545;SDS011;50104;52.002;4.688;2022-08-19T08:28:19;34.92;;;26.90;;
47545;SDS011;50104;52.002;4.688;2022-08-19T08:33:21;37.30;;;26.90;;
47545;SDS011;50104;52.002;4.688;2022-08-19T08:38:25;34.38;;;26.05;;
47545;SDS011;50104;52.002;4.688;2022-08-19T08:43:29;32.42;;;26.00;;
47545;SDS011;50104;52.002;4.688;2022-08-19T08:48:59;35.45;;;26.83;;
47545;SDS011;50104;52.002;4.688;2022-08-19T08:54:20;37.00;;;25.45;;
47545;SDS011;50104;52.002;4.688;2022-08-19T08:59:29;37.17;;;24.58;;
47545;SDS011;50104;52.002;4.688;2022-08-19T09:04:35;34.40;;;23.05;;
47545;SDS011;50104;52.002;4.688;2022-08-19T09:09:39;31.17;;;21.83;;
47545;SDS011;50104;52.002;4.688;2022-08-19T09:19:59;28.42;;;22.42;;
47545;SDS011;50104;52.002;4.688;2022-08-19T09:25:11;27.70;;;20.98;;
47545;SDS011;50104;52.002;4.688;2022-08-19T09:30:19;28.00;;;20.20;;
47545;SDS011;50104;52.002;4.688;2022-08-19T09:35:25;20.55;;;17.95;;
47545;SDS011;50104;52.002;4.688;2022-08-19T09:40:29;23.80;;;18.50;;
47545;SDS011;50104;52.002;4.688;2022-08-19T09:45:31;24.90;;;18.63;;
47545;SDS011;50104;52.002;4.688;2022-08-19T09:50:32;20.05;;;16.95;;
47545;SDS011;50104;52.002;4.688;2022-08-19T09:55:35;18.63;;;15.55;;
47545;SDS011;50104;52.002;4.688;2022-08-19T10:00:37;19.80;;;16.63;;
47545;SDS011;50104;52.002;4.688;2022-08-19T10:05:38;18.77;;;14.75;;
47545;SDS011;50104;52.002;4.688;2022-08-19T10:10:48;20.60;;;15.02;;
47545;SDS011;50104;52.002;4.688;2022-08-19T10:15:51;17.77;;;14.20;;
47545;SDS011;50104;52.002;4.688;2022-08-19T10:21:01;22.10;;;14.00;;
47545;SDS011;50104;52.002;4.688;2022-08-19T10:26:09;15.02;;;13.30;;
47545;SDS011;50104;52.002;4.688;2022-08-19T10:31:17;16.67;;;13.48;;
47545;SDS011;50104;52.002;4.688;2022-08-19T10:36:22;13.45;;;11.25;;
47545;SDS011;50104;52.002;4.688;2022-08-19T10:41:30;16.77;;;11.27;;
47545;SDS011;50104;52.002;4.688;2022-08-19T10:46:35;11.50;;;9.70;;
47545;SDS011;50104;52.002;4.688;2022-08-19T10:51:41;11.88;;;9.18;;
47545;SDS011;50104;52.002;4.688;2022-08-19T10:57:01;13.13;;;8.23;;
47545;SDS011;50104;52.002;4.688;2022-08-19T11:02:03;12.80;;;9.45;;
47545;SDS011;50104;52.002;4.688;2022-08-19T11:07:07;11.77;;;7.70;;
47545;SDS011;50104;52.002;4.688;2022-08-19T11:12:10;8.57;;;6.72;;
47545;SDS011;50104;52.002;4.688;2022-08-19T11:17:12;10.35;;;5.38;;
47545;SDS011;50104;52.002;4.688;2022-08-19T11:22:13;6.70;;;4.00;;
47545;SDS011;50104;52.002;4.688;2022-08-19T11:27:14;5.15;;;3.55;;
47545;SDS011;50104;52.002;4.688;2022-08-19T11:32:15;6.28;;;4.00;;
47545;SDS011;50104;52.002;4.688;2022-08-19T11:37:16;6.80;;;3.90;;
47545;SDS011;50104;52.002;4.688;2022-08-19T11:42:17;4.63;;;3.92;;
47545;SDS011;50104;52.002;4.688;2022-08-19T11:47:36;5.93;;;3.90;;
47545;SDS011;50104;52.002;4.688;2022-08-19T11:52:39;7.57;;;4.25;;
47545;SDS011;50104;52.002;4.688;2022-08-19T11:57:41;3.67;;;2.92;;
47545;SDS011;50104;52.002;4.688;2022-08-19T12:02:43;3.92;;;2.95;;
47545;SDS011;50104;52.002;4.688;2022-08-19T12:07:45;5.85;;;2.65;;
47545;SDS011;50104;52.002;4.688;2022-08-19T12:12:46;3.55;;;2.78;;
47545;SDS011;50104;52.002;4.688;2022-08-19T12:17:47;2.58;;;2.38;;
47545;SDS011;50104;52.002;4.688;2022-08-19T12:22:48;3.65;;;2.65;;
47545;SDS011;50104;52.002;4.688;2022-08-19T12:27:50;2.45;;;2.10;;
47545;SDS011;50104;52.002;4.688;2022-08-19T12:32:51;4.63;;;2.67;;
47545;SDS011;50104;52.002;4.688;2022-08-19T12:37:52;1.80;;;1.52;;
47545;SDS011;50104;52.002;4.688;2022-08-19T12:42:54;3.78;;;1.85;;
47545;SDS011;50104;52.002;4.688;2022-08-19T12:47:55;2.42;;;2.15;;
47545;SDS011;50104;52.002;4.688;2022-08-19T12:52:56;3.40;;;2.13;;
47545;SDS011;50104;52.002;4.688;2022-08-19T12:57:58;4.60;;;2.60;;
47545;SDS011;50104;52.002;4.688;2022-08-19T13:03:01;3.67;;;2.58;;
47545;SDS011;50104;52.002;4.688;2022-08-19T13:08:03;3.13;;;2.83;;
47545;SDS011;50104;52.002;4.688;2022-08-19T13:13:06;7.30;;;4.30;;
47545;SDS011;50104;52.002;4.688;2022-08-19T13:18:10;4.57;;;3.80;;
47545;SDS011;50104;52.002;4.688;2022-08-19T13:23:12;5.60;;;5.05;;
47545;SDS011;50104;52.002;4.688;2022-08-19T13:28:13;7.95;;;5.97;;
47545;SDS011;50104;52.002;4.688;2022-08-19T13:33:14;6.47;;;5.10;;
47545;SDS011;50104;52.002;4.688;2022-08-19T13:38:20;7.18;;;4.95;;
47545;SDS011;50104;52.002;4.688;2022-08-19T13:43:23;7.65;;;5.22;;
47545;SDS011;50104;52.002;4.688;2022-08-19T13:48:27;7.30;;;5.38;;
47545;SDS011;50104;52.002;4.688;2022-08-19T13:53:28;10.55;;;6.57;;
47545;SDS011;50104;52.002;4.688;2022-08-19T13:58:30;8.38;;;6.25;;
47545;SDS011;50104;52.002;4.688;2022-08-19T14:03:32;9.82;;;7.05;;
47545;SDS011;50104;52.002;4.688;2022-08-19T14:08:33;10.15;;;7.10;;
47545;SDS011;50104;52.002;4.688;2022-08-19T14:13:35;8.30;;;7.38;;
47545;SDS011;50104;52.002;4.688;2022-08-19T14:18:37;8.25;;;6.90;;
47545;SDS011;50104;52.002;4.688;2022-08-19T14:23:38;7.68;;;6.80;;
47545;SDS011;50104;52.002;4.688;2022-08-19T14:28:39;9.25;;;6.65;;
47545;SDS011;50104;52.002;4.688;2022-08-19T14:33:41;7.53;;;6.40;;
47545;SDS011;50104;52.002;4.688;2022-08-19T14:38:42;8.38;;;6.82;;
47545;SDS011;50104;52.002;4.688;2022-08-19T14:43:44;7.47;;;6.47;;
47545;SDS011;50104;52.002;4.688;2022-08-19T14:48:51;8.10;;;5.00;;
47545;SDS011;50104;52.002;4.688;2022-08-19T14:53:52;10.25;;;6.38;;
47545;SDS011;50104;52.002;4.688;2022-08-19T14:58:54;6.80;;;5.28;;
47545;SDS011;50104;52.002;4.688;2022-08-19T15:03:59;4.05;;;3.28;;
47545;SDS011;50104;52.002;4.688;2022-08-19T15:09:00;3.35;;;1.83;;
47545;SDS011;50104;52.002;4.688;2022-08-19T15:14:02;3.05;;;1.70;;
47545;SDS011;50104;52.002;4.688;2022-08-19T15:19:02;3.03;;;1.80;;
47545;SDS011;50104;52.002;4.688;2022-08-19T15:24:03;4.45;;;2.17;;
47545;SDS011;50104;52.002;4.688;2022-08-19T15:29:05;2.85;;;2.15;;
47545;SDS011;50104;52.002;4.688;2022-08-19T15:34:06;4.40;;;1.90;;
47545;SDS011;50104;52.002;4.688;2022-08-19T15:39:07;4.63;;;2.38;;
47545;SDS011;50104;52.002;4.688;2022-08-19T15:44:10;5.88;;;3.60;;
47545;SDS011;50104;52.002;4.688;2022-08-19T15:49:16;5.72;;;4.22;;
47545;SDS011;50104;52.002;4.688;2022-08-19T15:54:19;4.53;;;3.72;;
47545;SDS011;50104;52.002;4.688;2022-08-19T15:59:21;4.93;;;2.92;;
47545;SDS011;50104;52.002;4.688;2022-08-19T16:04:40;1.60;;;1.50;;
47545;SDS011;50104;52.002;4.688;2022-08-19T16:09:59;1.50;;;1.40;;
47545;SDS011;50104;52.002;4.688;2022-08-19T16:15:00;2.28;;;1.48;;
47545;SDS011;50104;52.002;4.688;2022-08-19T16:20:04;2.17;;;1.20;;
47545;SDS011;50104;52.002;4.688;2022-08-19T16:25:13;1.52;;;1.42;;
47545;SDS011;50104;52.002;4.688;2022-08-19T16:30:14;1.60;;;1.50;;
47545;SDS011;50104;52.002;4.688;2022-08-19T16:35:15;1.67;;;1.58;;
47545;SDS011;50104;52.002;4.688;2022-08-19T16:40:16;2.22;;;1.77;;
47545;SDS011;50104;52.002;4.688;2022-08-19T16:45:17;2.17;;;1.88;;
47545;SDS011;50104;52.002;4.688;2022-08-19T16:50:18;2.17;;;2.03;;
47545;SDS011;50104;52.002;4.688;2022-08-19T16:55:20;1.63;;;1.30;;
47545;SDS011;50104;52.002;4.688;2022-08-19T17:00:22;1.63;;;1.38;;
47545;SDS011;50104;52.002;4.688;2022-08-19T17:05:23;1.48;;;1.10;;
47545;SDS011;50104;52.002;4.688;2022-08-19T17:10:24;1.60;;;1.35;;
47545;SDS011;50104;52.002;4.688;2022-08-19T17:15:24;2.15;;;1.95;;
47545;SDS011;50104;52.002;4.688;2022-08-19T17:20:25;3.33;;;1.65;;
47545;SDS011;50104;52.002;4.688;2022-08-19T17:25:27;2.13;;;1.80;;
47545;SDS011;50104;52.002;4.688;2022-08-19T17:30:32;2.30;;;2.10;;
47545;SDS011;50104;52.002;4.688;2022-08-19T17:35:33;2.33;;;1.70;;
47545;SDS011;50104;52.002;4.688;2022-08-19T17:40:34;1.65;;;1.52;;
47545;SDS011;50104;52.002;4.688;2022-08-19T17:45:36;1.60;;;1.50;;
47545;SDS011;50104;52.002;4.688;2022-08-19T17:50:39;2.03;;;1.88;;
47545;SDS011;50104;52.002;4.688;2022-08-19T17:55:40;2.63;;;2.42;;
47545;SDS011;50104;52.002;4.688;2022-08-19T18:00:41;2.20;;;2.10;;
47545;SDS011;50104;52.002;4.688;2022-08-19T18:05:42;3.05;;;2.20;;
47545;SDS011;50104;52.002;4.688;2022-08-19T18:10:43;4.15;;;3.08;;
47545;SDS011;50104;52.002;4.688;2022-08-19T18:15:44;4.72;;;4.32;;
47545;SDS011;50104;52.002;4.688;2022-08-19T18:20:46;5.40;;;4.90;;
47545;SDS011;50104;52.002;4.688;2022-08-19T18:25:47;5.20;;;4.70;;
47545;SDS011;50104;52.002;4.688;2022-08-19T18:30:50;5.03;;;4.40;;
47545;SDS011;50104;52.002;4.688;2022-08-19T18:35:51;4.85;;;4.10;;
47545;SDS011;50104;52.002;4.688;2022-08-19T18:40:52;5.10;;;3.78;;
47545;SDS011;50104;52.002;4.688;2022-08-19T18:46:12;4.43;;;4.00;;
47545;SDS011;50104;52.002;4.688;2022-08-19T18:51:31;4.60;;;4.18;;
47545;SDS011;50104;52.002;4.688;2022-08-19T18:56:32;5.03;;;4.53;;
47545;SDS011;50104;52.002;4.688;2022-08-19T19:01:35;6.43;;;5.35;;
47545;SDS011;50104;52.002;4.688;2022-08-19T19:06:39;7.35;;;6.60;;
47545;SDS011;50104;52.002;4.688;2022-08-19T19:11:43;8.35;;;7.32;;
47545;SDS011;50104;52.002;4.688;2022-08-19T19:16:48;9.90;;;7.68;;
47545;SDS011;50104;52.002;4.688;2022-08-19T19:21:49;8.10;;;7.30;;
47545;SDS011;50104;52.002;4.688;2022-08-19T19:26:50;8.25;;;6.15;;
47545;SDS011;50104;52.002;4.688;2022-08-19T19:31:52;6.57;;;5.05;;
47545;SDS011;50104;52.002;4.688;2022-08-19T19:36:55;6.47;;;4.13;;
47545;SDS011;50104;52.002;4.688;2022-08-19T19:41:56;6.50;;;4.85;;
47545;SDS011;50104;52.002;4.688;2022-08-19T19:46:57;6.55;;;3.92;;
47545;SDS011;50104;52.002;4.688;2022-08-19T19:51:59;9.75;;;4.25;;
47545;SDS011;50104;52.002;4.688;2022-08-19T19:56:59;6.68;;;4.25;;
47545;SDS011;50104;52.002;4.688;2022-08-19T20:02:00;7.45;;;3.80;;
47545;SDS011;50104;52.002;4.688;2022-08-19T20:07:01;8.40;;;4.38;;
47545;SDS011;50104;52.002;4.688;2022-08-19T20:12:02;6.13;;;3.95;;
47545;SDS011;50104;52.002;4.688;2022-08-19T20:17:03;5.20;;;4.38;;
47545;SDS011;50104;52.002;4.688;2022-08-19T20:22:05;8.88;;;5.38;;
47545;SDS011;50104;52.002;4.688;2022-08-19T20:27:06;6.40;;;5.38;;
47545;SDS011;50104;52.002;4.688;2022-08-19T20:32:08;5.80;;;4.50;;
47545;SDS011;50104;52.002;4.688;2022-08-19T20:37:09;9.48;;;5.60;;
47545;SDS011;50104;52.002;4.688;2022-08-19T20:42:10;9.40;;;5.88;;
47545;SDS011;50104;52.002;4.688;2022-08-19T20:47:12;10.95;;;7.13;;
47545;SDS011;50104;52.002;4.688;2022-08-19T20:52:13;7.20;;;6.35;;
47545;SDS011;50104;52.002;4.688;2022-08-19T20:57:14;10.95;;;6.07;;
47545;SDS011;50104;52.002;4.688;2022-08-19T21:02:15;9.80;;;5.85;;
47545;SDS011;50104;52.002;4.688;2022-08-19T21:07:16;11.05;;;7.38;;
47545;SDS011;50104;52.002;4.688;2022-08-19T21:12:18;10.43;;;6.93;;
47545;SDS011;50104;52.002;4.688;2022-08-19T21:17:18;13.70;;;7.35;;
47545;SDS011;50104;52.002;4.688;2022-08-19T21:22:20;11.50;;;6.90;;
47545;SDS011;50104;52.002;4.688;2022-08-19T21:27:21;11.27;;;6.60;;
47545;SDS011;50104;52.002;4.688;2022-08-19T21:32:22;8.18;;;6.60;;
47545;SDS011;50104;52.002;4.688;2022-08-19T21:37:23;8.88;;;6.72;;
47545;SDS011;50104;52.002;4.688;2022-08-19T21:42:24;10.35;;;6.47;;
47545;SDS011;50104;52.002;4.688;2022-08-19T21:47:25;14.43;;;6.57;;
47545;SDS011;50104;52.002;4.688;2022-08-19T21:52:26;8.60;;;5.68;;
47545;SDS011;50104;52.002;4.688;2022-08-19T21:57:27;10.30;;;7.25;;
47545;SDS011;50104;52.002;4.688;2022-08-19T22:02:28;7.68;;;6.53;;
47545;SDS011;50104;52.002;4.688;2022-08-19T22:07:30;10.43;;;7.18;;
47545;SDS011;50104;52.002;4.688;2022-08-19T22:12:51;9.50;;;8.02;;
47545;SDS011;50104;52.002;4.688;2022-08-19T22:18:08;9.43;;;7.55;;
47545;SDS011;50104;52.002;4.688;2022-08-19T22:23:11;13.85;;;7.47;;
47545;SDS011;50104;52.002;4.688;2022-08-19T22:28:22;18.85;;;7.43;;
47545;SDS011;50104;52.002;4.688;2022-08-19T22:33:24;16.95;;;7.03;;
47545;SDS011;50104;52.002;4.688;2022-08-19T22:38:46;8.48;;;6.75;;
47545;SDS011;50104;52.002;4.688;2022-08-19T22:43:47;10.50;;;5.82;;
47545;SDS011;50104;52.002;4.688;2022-08-19T22:48:48;9.45;;;5.35;;
47545;SDS011;50104;52.002;4.688;2022-08-19T22:53:49;10.45;;;4.78;;
47545;SDS011;50104;52.002;4.688;2022-08-19T22:58:50;7.35;;;4.18;;
47545;SDS011;50104;52.002;4.688;2022-08-19T23:03:51;8.40;;;4.82;;
47545;SDS011;50104;52.002;4.688;2022-08-19T23:08:52;5.30;;;4.47;;
47545;SDS011;50104;52.002;4.688;2022-08-19T23:13:54;7.43;;;4.88;;
47545;SDS011;50104;52.002;4.688;2022-08-19T23:18:55;7.78;;;4.45;;
47545;SDS011;50104;52.002;4.688;2022-08-19T23:23:56;4.90;;;3.67;;
47545;SDS011;50104;52.002;4.688;2022-08-19T23:28:57;9.95;;;4.65;;
47545;SDS011;50104;52.002;4.688;2022-08-19T23:34:17;4.88;;;4.25;;
47545;SDS011;50104;52.002;4.688;2022-08-19T23:39:18;9.13;;;4.40;;
47545;SDS011;50104;52.002;4.688;2022-08-19T23:44:19;6.03;;;4.55;;
47545;SDS011;50104;52.002;4.688;2022-08-19T23:49:20;10.27;;;4.40;;
47545;SDS011;50104;52.002;4.688;2022-08-19T23:54:22;5.45;;;4.13;;
47545;SDS011;50104;52.002;4.688;2022-08-19T23:59:23;9.23;;;4.07;;
